Hlavní strana
METAR-TAF:

METAR-TAF

Letiště :

Letiště Teherán-Mehrabád

Teherán, Írán

zeměpisná šířka: 35-41N, zeměpisná délka: 051-21E, výška: 1204 m

Aktuální stav počasí

Zpráva byla vytvořena před 38 minutami, v 20:30 UTC
Západní vítr 8 kt
Teplota 34°C
Vlhkost vzduchu 11%
Tlak 1006 hPa
Viditelnost 10 km a více
Polojasno ve výšce 10000 ft

METAR: OIII 172030Z 27008KT 9999 SCT100 34/M01 Q1006 A2971

Čas: 01:38 (21:08 UTC)

Předpověď počasí

Zpráva byla vytvořena před 3 hodinami a 38 minutami, v 17:30 UTC
Předpověď platná od 17 v 18 UTC do 18 v 24 UTC
Jihovýchodní vítr 8 kt
Viditelnost: 8000 m
Dočasný
od 18 v 09 UTC do 18 v 15 UTC
Jihovýchodní vítr 17 kt

TAF: OIII 171730Z 1718/1824 14004MPS 8000 NSC TEMPO 1809/1815 13009MPS

Stav a předpovědi počasí z více než 4 000 letišť (zprávy METAR a TAF).

Červené a žluté tečky na mapě představují dostupné meteorologické stanice.

Když kurzor umístíte na tečku, zobrazí se název stanice.

Pak kliknutím zobrazíte stav a předpověď počasí.

Chcete-li změnit mapu, kliknutím na zelené tlačítko se znaménkem +mapu přiblížíte, kliknutím na zelené tlačítko se znaménkem – mapu oddálíte a kliknutím na zelené šipky přejdete na sousední mapy.


METAR-TAF: